Time;durP1;ratioP1;P1;durP2;ratioP2;P2;SDS_P1;SDS_P2;PMS_P1;PMS_P2;Temp;Humidity;BMP_temperature;BMP_pressure;BME280_temperature;BME280_humidity;BME280_pressure;Samples;Min_cycle;Max_cycle;Signal;HPM_P1;HPM_P2
2022/02/25 00:00:54;;;;;;;0.40;0.40;;;;;;;5.69;71.74;100814.53;5016729;28;20029;-84
2022/02/25 00:03:19;;;;;;;0.45;0.38;;;;;;;5.62;72.15;100829.72;5017694;28;20018;-85
2022/02/25 00:05:45;;;;;;;0.22;0.22;;;;;;;5.54;72.16;100835.25;5015648;28;20705;-84
2022/02/25 00:08:10;;;;;;;0.75;0.25;;;;;;;5.44;72.34;100846.38;5017385;28;20030;-84
2022/02/25 00:10:36;;;;;;;0.40;0.40;;;;;;;5.42;72.24;100847.63;5013858;28;20029;-84
2022/02/25 00:13:03;;;;;;;0.93;0.30;;;;;;;5.38;72.01;100863.13;5019267;28;20029;-84
2022/02/25 00:17:57;;;;;;;1.13;0.50;;;;;;;5.44;71.79;100888.06;5011444;28;20054;-80
2022/02/25 00:20:23;;;;;;;0.68;0.40;;;;;;;5.44;71.73;100896.03;5009609;28;20084;-79
2022/02/25 00:22:49;;;;;;;0.40;0.40;;;;;;;5.42;71.55;100914.03;5010188;28;20111;-79
2022/02/25 00:25:15;;;;;;;0.52;0.52;;;;;;;5.26;71.91;100920.63;5007130;28;20022;-78
2022/02/25 00:27:42;;;;;;;1.67;0.40;;;;;;;5.01;73.04;100901.06;5007583;28;20018;-79
2022/02/25 00:30:09;;;;;;;0.55;0.35;;;;;;;4.83;73.58;100909.66;5011974;28;20044;-79
2022/02/25 00:32:35;;;;;;;1.50;0.45;;;;;;;4.65;74.87;100910.28;5009565;28;20026;-79
2022/02/25 00:35:01;;;;;;;0.60;0.35;;;;;;;4.59;75.32;100915.63;5007358;28;20053;-79
2022/02/25 00:37:27;;;;;;;0.93;0.50;;;;;;;4.62;75.58;100939.91;5014070;28;20446;-80
2022/02/25 00:39:53;;;;;;;0.30;0.30;;;;;;;4.68;75.13;100946.25;5013465;28;20026;-79
2022/02/25 00:42:19;;;;;;;3.80;0.50;;;;;;;4.73;74.61;100951.75;5014417;28;20022;-79
2022/02/25 00:44:44;;;;;;;0.45;0.40;;;;;;;4.72;75.02;100956.25;5004275;28;20079;-79
2022/02/25 00:47:10;;;;;;;0.77;0.60;;;;;;;4.70;75.02;100960.13;4991571;28;20034;-79
2022/02/25 00:49:35;;;;;;;0.30;0.30;;;;;;;4.65;75.66;100959.91;5010796;28;20034;-79
2022/02/25 00:52:01;;;;;;;0.60;0.50;;;;;;;4.69;75.18;100958.50;5010837;28;20049;-79
2022/02/25 00:54:27;;;;;;;0.82;0.60;;;;;;;4.71;75.12;100975.03;5003533;28;20026;-80
2022/02/25 00:56:52;;;;;;;1.75;0.50;;;;;;;4.69;75.32;100977.06;5004163;28;20061;-79
2022/02/25 00:59:18;;;;;;;1.08;0.60;;;;;;;4.64;75.04;100976.84;5010099;28;20026;-79
2022/02/25 01:01:45;;;;;;;0.88;0.77;;;;;;;4.61;74.79;100979.91;5009354;28;20034;-79
2022/02/25 01:04:10;;;;;;;1.10;0.52;;;;;;;4.59;74.70;100988.09;5013345;28;20029;-79
2022/02/25 01:06:36;;;;;;;0.40;0.40;;;;;;;4.59;74.86;100987.25;5008304;28;20471;-79
2022/02/25 01:09:02;;;;;;;1.63;0.55;;;;;;;4.55;74.10;100997.47;5017289;28;20042;-80
2022/02/25 01:11:28;;;;;;;1.33;0.60;;;;;;;4.60;74.16;101004.81;5014397;28;20723;-79
2022/02/25 01:13:53;;;;;;;3.47;0.70;;;;;;;4.65;73.39;101003.19;5014969;28;20026;-80
2022/02/25 01:16:20;;;;;;;0.90;0.50;;;;;;;4.70;73.25;101018.53;5016360;28;20030;-79
2022/02/25 01:18:46;;;;;;;0.77;0.50;;;;;;;4.74;72.93;101022.41;5010930;28;20065;-79
2022/02/25 01:21:12;;;;;;;2.05;0.50;;;;;;;4.71;72.95;101020.16;5010956;28;20026;-79
2022/02/25 01:23:37;;;;;;;0.40;0.30;;;;;;;4.72;72.80;101025.25;5017507;28;20037;-79
2022/02/25 01:26:03;;;;;;;0.50;0.50;;;;;;;4.71;72.98;101025.47;5015869;28;20112;-79
2022/02/25 01:28:29;;;;;;;0.70;0.50;;;;;;;4.69;72.93;101033.63;5010098;28;20171;-79
2022/02/25 01:30:54;;;;;;;0.98;0.63;;;;;;;4.68;72.61;101034.66;5013517;28;20033;-79
2022/02/25 01:33:20;;;;;;;1.25;0.95;;;;;;;4.67;72.62;101034.81;5014358;28;20034;-79
2022/02/25 01:35:45;;;;;;;2.05;1.02;;;;;;;4.66;72.49;101035.84;5015447;28;20568;-79
2022/02/25 01:38:11;;;;;;;1.17;0.65;;;;;;;4.67;72.46;101043.63;5015398;28;20030;-79
2022/02/25 01:40:37;;;;;;;2.25;0.57;;;;;;;4.69;71.85;101038.94;5016572;28;20096;-79
2022/02/25 01:43:03;;;;;;;1.80;0.73;;;;;;;4.68;71.72;101045.28;5008471;28;20030;-79
2022/02/25 01:45:32;;;;;;;3.08;0.85;;;;;;;4.72;71.41;101040.38;5013914;28;20472;-80
2022/02/25 01:47:57;;;;;;;3.65;1.02;;;;;;;4.75;71.42;101035.47;5008608;28;20102;-79
2022/02/25 01:50:23;;;;;;;1.15;0.60;;;;;;;4.69;71.04;101048.75;5012790;28;20058;-80
2022/02/25 01:53:01;;;;;;;0.70;0.50;;;;;;;4.64;70.76;101048.50;5018949;28;20029;-79
2022/02/25 01:55:29;;;;;;;2.15;0.63;;;;;;;4.61;70.78;101049.72;5016235;28;20026;-80
2022/02/25 01:57:55;;;;;;;4.85;0.90;;;;;;;4.61;70.75;101043.59;5010079;28;20030;-79
2022/02/25 02:00:20;;;;;;;2.53;0.80;;;;;;;4.61;70.98;101055.03;5012971;28;20041;-80
2022/02/25 02:02:46;;;;;;;1.45;0.98;;;;;;;4.60;70.61;101057.91;5012391;28;20432;-80
2022/02/25 02:05:11;;;;;;;3.30;0.70;;;;;;;4.58;70.58;101049.31;5010763;28;20037;-80
2022/02/25 02:07:37;;;;;;;2.88;0.88;;;;;;;4.58;70.29;101051.97;5013494;28;20053;-79
2022/02/25 02:10:03;;;;;;;4.90;0.85;;;;;;;4.53;70.37;101056.06;5012324;28;20117;-80
2022/02/25 02:12:28;;;;;;;1.42;0.75;;;;;;;4.51;70.17;101047.47;5010981;28;20022;-80
2022/02/25 02:14:54;;;;;;;1.98;0.60;;;;;;;4.47;70.11;101051.53;5012218;28;20071;-80
2022/02/25 02:17:21;;;;;;;4.20;0.70;;;;;;;4.43;70.04;101047.66;5011003;28;20026;-80
2022/02/25 02:19:47;;;;;;;1.73;0.60;;;;;;;4.42;70.16;101051.31;5011511;28;20561;-80
2022/02/25 02:22:15;;;;;;;4.07;0.65;;;;;;;4.37;69.82;101052.94;5012216;28;20021;-80
2022/02/25 02:24:41;;;;;;;0.93;0.50;;;;;;;4.34;70.22;101061.31;5012930;28;20392;-80
2022/02/25 02:27:06;;;;;;;1.60;0.80;;;;;;;4.30;70.07;101060.03;5013245;28;20064;-79
2022/02/25 02:29:32;;;;;;;1.13;0.90;;;;;;;4.27;70.03;101061.25;5011268;28;20025;-80
2022/02/25 02:31:57;;;;;;;7.28;0.70;;;;;;;4.23;70.14;101062.69;5012579;28;20395;-80
2022/02/25 02:34:23;;;;;;;2.22;0.70;;;;;;;4.24;69.99;101066.97;5014241;28;20045;-79
2022/02/25 02:36:49;;;;;;;3.25;0.60;;;;;;;4.24;70.21;101075.75;5009636;28;20021;-80
2022/02/25 02:39:15;;;;;;;4.53;0.60;;;;;;;4.20;70.04;101079.00;5026699;22;20022;-75
2022/02/25 02:41:41;;;;;;;3.22;0.70;;;;;;;4.16;70.15;101083.88;5001820;28;20224;-75
2022/02/25 02:44:07;;;;;;;1.50;0.85;;;;;;;4.16;69.94;101091.84;5001049;28;20398;-75
2022/02/25 02:46:33;;;;;;;1.17;0.77;;;;;;;4.16;70.07;101102.47;4986094;28;20164;-75
2022/02/25 02:48:59;;;;;;;0.85;0.80;;;;;;;4.15;69.75;101102.66;4999322;28;20495;-75
2022/02/25 02:51:25;;;;;;;1.90;0.90;;;;;;;4.15;69.61;101108.78;5000968;28;20026;-75
2022/02/25 02:53:50;;;;;;;2.60;1.05;;;;;;;4.18;69.81;101118.16;4999796;28;20034;-74
2022/02/25 02:56:16;;;;;;;2.83;0.80;;;;;;;4.20;69.82;101124.91;5002989;28;20411;-75
2022/02/25 02:58:42;;;;;;;2.05;0.80;;;;;;;4.26;69.77;101117.97;5000639;28;20037;-75
2022/02/25 03:01:08;;;;;;;3.50;0.70;;;;;;;4.26;69.83;101128.59;4996202;28;20022;-75
2022/02/25 03:03:33;;;;;;;2.92;0.70;;;;;;;4.25;69.87;101134.91;4999565;28;20033;-75
2022/02/25 03:05:59;;;;;;;2.65;0.90;;;;;;;4.27;69.82;101132.88;4999049;28;20297;-75
2022/02/25 03:08:24;;;;;;;4.38;0.85;;;;;;;4.26;69.57;101136.56;4995597;28;20108;-75
2022/02/25 03:10:50;;;;;;;4.60;0.90;;;;;;;4.24;69.87;101134.09;5001276;28;20119;-75
2022/02/25 03:13:16;;;;;;;3.15;0.93;;;;;;;4.19;69.65;101133.88;5000858;28;20405;-75
2022/02/25 03:15:42;;;;;;;2.58;0.98;;;;;;;4.15;69.96;101142.44;4998900;28;20068;-75
2022/02/25 03:18:08;;;;;;;3.45;0.90;;;;;;;4.12;69.97;101134.84;4997618;28;20034;-74
2022/02/25 03:20:34;;;;;;;5.03;1.20;;;;;;;4.05;69.85;101140.13;4997767;28;20048;-75
2022/02/25 03:23:00;;;;;;;4.22;1.00;;;;;;;4.09;69.73;101144.00;4989548;28;20030;-75
2022/02/25 03:25:26;;;;;;;3.03;0.85;;;;;;;4.11;69.52;101152.59;4986805;28;20110;-75
2022/02/25 03:27:52;;;;;;;2.15;1.10;;;;;;;4.12;69.74;101156.88;4996169;28;20032;-74
2022/02/25 03:30:17;;;;;;;1.55;0.77;;;;;;;4.13;69.90;101161.19;5000306;28;20042;-75
2022/02/25 03:32:43;;;;;;;4.35;1.17;;;;;;;4.13;69.63;101163.84;4997389;28;20029;-75
2022/02/25 03:35:10;;;;;;;2.63;0.90;;;;;;;4.12;69.96;101164.00;4999468;28;20300;-75
2022/02/25 03:37:36;;;;;;;4.80;1.30;;;;;;;4.14;69.86;101169.97;5001844;28;20604;-75
2022/02/25 03:40:03;;;;;;;3.90;1.00;;;;;;;4.12;70.05;101178.09;5000765;28;20475;-75
2022/02/25 03:42:29;;;;;;;3.05;0.90;;;;;;;4.12;70.11;101171.97;4998583;28;20029;-75
2022/02/25 03:44:54;;;;;;;4.00;0.90;;;;;;;4.13;69.77;101184.22;4998406;28;20414;-75
2022/02/25 03:47:20;;;;;;;5.70;2.25;;;;;;;4.15;70.05;101184.88;4995340;28;20030;-75
2022/02/25 03:49:45;;;;;;;4.25;0.90;;;;;;;4.15;70.14;101187.50;5000373;28;20042;-75
2022/02/25 03:52:11;;;;;;;4.35;1.00;;;;;;;4.14;70.33;101194.66;4998770;28;20252;-75
2022/02/25 03:54:37;;;;;;;4.18;1.08;;;;;;;4.16;70.10;101189.97;4997439;28;20042;-75
2022/02/25 03:57:03;;;;;;;2.38;0.73;;;;;;;4.18;70.36;101187.13;4999576;28;20030;-75
2022/02/25 03:59:28;;;;;;;4.97;1.27;;;;;;;4.16;70.10;101199.75;4998344;28;20034;-75
2022/02/25 04:01:54;;;;;;;5.28;1.25;;;;;;;4.16;70.17;101197.94;4998888;28;20531;-75
2022/02/25 04:04:22;;;;;;;5.68;1.30;;;;;;;4.18;70.26;101203.03;5001374;28;20033;-75
2022/02/25 04:06:48;;;;;;;4.30;1.25;;;;;;;4.19;70.79;101208.13;5007808;28;20037;-75
2022/02/25 04:09:18;;;;;;;4.07;1.17;;;;;;;4.17;70.50;101215.47;5007061;28;20060;-75
2022/02/25 04:11:45;;;;;;;4.47;1.25;;;;;;;4.16;70.43;101215.66;5001832;28;20121;-74
2022/02/25 04:14:11;;;;;;;4.90;1.42;;;;;;;4.15;70.35;101217.50;4998212;28;20113;-75
2022/02/25 04:16:36;;;;;;;3.38;1.48;;;;;;;4.14;70.59;101220.34;5001899;28;20034;-75
2022/02/25 04:19:04;;;;;;;5.35;1.27;;;;;;;4.10;70.61;101225.19;5006049;28;20041;-74
2022/02/25 04:21:30;;;;;;;6.00;1.75;;;;;;;4.14;70.49;101230.97;5005895;28;20531;-74
2022/02/25 04:23:56;;;;;;;7.00;1.50;;;;;;;4.13;70.61;101231.94;5004792;28;20090;-74
2022/02/25 04:26:21;;;;;;;5.53;1.17;;;;;;;4.13;70.67;101237.25;5001194;28;20042;-75
2022/02/25 04:28:47;;;;;;;5.78;1.20;;;;;;;4.12;70.66;101241.72;5004582;28;20033;-75
2022/02/25 04:31:12;;;;;;;1.90;1.48;;;;;;;4.11;70.54;101248.06;5000173;28;20026;-75
2022/02/25 04:33:38;;;;;;;5.32;1.40;;;;;;;4.15;70.86;101248.50;5006013;28;20026;-74
2022/02/25 04:36:04;;;;;;;4.97;1.10;;;;;;;4.12;70.60;101236.44;4997959;28;20025;-75
2022/02/25 04:38:30;;;;;;;6.32;1.48;;;;;;;4.11;70.63;101244.59;5001439;28;20108;-75
2022/02/25 04:41:01;;;;;;;8.65;1.92;;;;;;;4.13;70.54;101247.84;5003381;28;20087;-75
2022/02/25 04:43:31;;;;;;;6.13;1.52;;;;;;;4.15;70.88;101251.97;4996252;28;20030;-74
2022/02/25 04:45:57;;;;;;;6.93;1.48;;;;;;;4.13;70.39;101258.47;5006119;28;20597;-75
2022/02/25 04:48:23;;;;;;;4.97;1.60;;;;;;;4.16;70.56;101250.16;5001821;28;20030;-75
2022/02/25 04:50:49;;;;;;;5.05;1.52;;;;;;;4.16;70.57;101258.09;4998999;28;20030;-75
2022/02/25 04:53:15;;;;;;;4.97;1.70;;;;;;;4.16;70.30;101263.41;4998484;28;20037;-75
2022/02/25 04:55:41;;;;;;;6.30;1.80;;;;;;;4.21;70.39;101266.28;5003030;28;20442;-75
2022/02/25 04:58:07;;;;;;;12.15;2.30;;;;;;;4.22;70.06;101271.41;4997023;28;20026;-75
2022/02/25 05:00:33;;;;;;;2.92;1.48;;;;;;;4.25;70.24;101278.16;4997902;28;20024;-75
2022/02/25 05:02:58;;;;;;;4.20;1.73;;;;;;;4.25;70.22;101278.16;5003837;28;20045;-74
2022/02/25 05:05:24;;;;;;;5.90;2.22;;;;;;;4.21;70.13;101280.38;5003327;28;20034;-75
2022/02/25 05:07:50;;;;;;;6.57;1.85;;;;;;;4.17;70.41;101280.97;4998692;28;20139;-74
2022/02/25 05:10:15;;;;;;;6.57;2.30;;;;;;;4.16;70.25;101280.16;5000610;28;20053;-75
2022/02/25 05:12:41;;;;;;;6.10;1.73;;;;;;;4.13;70.07;101285.84;5007018;28;20044;-75
2022/02/25 05:20:35;;;;;;;10.20;2.55;;;;;;;4.16;70.08;101284.63;5001012;28;20045;-74
2022/02/25 05:23:02;;;;;;;5.55;1.60;;;;;;;4.16;70.22;101284.63;5004786;28;20030;-74
2022/02/25 05:25:29;;;;;;;8.50;2.08;;;;;;;4.15;70.16;101293.59;5000070;28;20058;-75
2022/02/25 05:27:56;;;;;;;3.80;1.98;;;;;;;4.13;70.20;101290.28;5003226;28;20022;-75
2022/02/25 05:30:23;;;;;;;3.65;1.70;;;;;;;4.12;69.83;101293.97;5003133;28;20550;-75
2022/02/25 05:32:49;;;;;;;8.13;2.65;;;;;;;4.07;70.04;101304.31;4996918;28;20036;-75
2022/02/25 05:35:16;;;;;;;10.20;2.40;;;;;;;4.02;69.94;101307.56;5008665;28;20509;-75
2022/02/25 05:37:43;;;;;;;8.15;2.10;;;;;;;4.00;70.21;101311.41;5004289;28;20069;-75
2022/02/25 05:40:12;;;;;;;4.20;2.10;;;;;;;3.99;70.00;101312.44;5003503;28;20060;-74
2022/02/25 05:42:38;;;;;;;8.05;2.20;;;;;;;3.98;70.00;101329.34;5000202;28;20034;-75
2022/02/25 05:45:05;;;;;;;7.72;2.47;;;;;;;3.99;69.93;101325.69;5004971;28;20146;-75
2022/02/25 05:47:31;;;;;;;7.93;2.40;;;;;;;3.99;69.97;101331.81;4995298;28;20014;-75
2022/02/25 05:49:57;;;;;;;7.00;1.98;;;;;;;4.01;70.12;101336.91;5001062;28;20042;-74
2022/02/25 05:52:23;;;;;;;9.15;1.90;;;;;;;4.01;69.98;101342.22;4998351;28;20033;-75
2022/02/25 05:54:49;;;;;;;5.53;2.10;;;;;;;4.02;69.88;101333.25;4994521;28;20033;-75
2022/02/25 05:57:16;;;;;;;10.50;2.15;;;;;;;4.00;69.78;101343.25;5005190;28;20030;-75
2022/02/25 05:59:43;;;;;;;5.13;1.63;;;;;;;3.97;69.62;101343.63;5004419;28;20435;-75
2022/02/25 06:02:09;;;;;;;8.20;1.98;;;;;;;3.95;69.80;101346.47;5005264;28;20439;-74
2022/02/25 06:04:35;;;;;;;5.05;1.73;;;;;;;3.94;69.98;101350.09;5008515;28;20030;-75
2022/02/25 06:07:00;;;;;;;6.68;2.30;;;;;;;3.93;70.00;101354.59;5003486;28;20072;-76
2022/02/25 06:09:26;;;;;;;6.38;1.83;;;;;;;3.92;70.08;101358.25;5008480;28;20034;-75
2022/02/25 06:11:52;;;;;;;4.30;1.90;;;;;;;3.88;70.02;101361.47;5006142;28;20033;-75
2022/02/25 06:14:17;;;;;;;7.53;1.90;;;;;;;3.84;70.05;101361.03;5008536;28;21914;-75
2022/02/25 06:16:43;;;;;;;8.20;1.83;;;;;;;3.82;70.11;101365.69;5004179;28;20031;-75
2022/02/25 06:19:09;;;;;;;7.60;2.08;;;;;;;3.79;70.17;101368.75;5007222;28;20112;-75
2022/02/25 06:21:34;;;;;;;9.25;1.98;;;;;;;3.79;70.18;101367.91;5000075;28;20037;-75
2022/02/25 06:24:00;;;;;;;5.32;1.85;;;;;;;3.78;70.33;101371.56;5002230;28;20033;-75
2022/02/25 06:26:25;;;;;;;6.97;2.60;;;;;;;3.77;70.14;101373.41;5005969;28;20052;-75
2022/02/25 06:28:52;;;;;;;21.00;2.63;;;;;;;3.77;70.42;101376.06;5003888;28;20026;-75
2022/02/25 06:31:18;;;;;;;3.78;1.75;;;;;;;3.75;70.11;101377.22;5018037;28;20040;-75
2022/02/25 06:33:44;;;;;;;5.80;1.50;;;;;;;3.72;70.48;101382.91;5011372;28;20021;-75
2022/02/25 06:36:10;;;;;;;5.35;1.92;;;;;;;3.70;70.15;101385.75;4996265;28;20030;-75
2022/02/25 06:38:35;;;;;;;5.50;2.00;;;;;;;3.70;70.10;101383.09;4996800;28;20014;-75
2022/02/25 06:41:01;;;;;;;7.20;1.90;;;;;;;3.69;70.16;101384.09;4999036;28;20040;-76
2022/02/25 06:43:27;;;;;;;7.25;1.90;;;;;;;3.70;70.53;101384.94;4993365;28;20113;-75
2022/02/25 06:45:52;;;;;;;6.50;2.08;;;;;;;3.72;70.35;101391.69;5005123;28;20030;-75
2022/02/25 06:48:18;;;;;;;9.82;3.25;;;;;;;3.75;70.29;101396.59;5007216;28;20515;-75
2022/02/25 06:50:44;;;;;;;8.63;2.55;;;;;;;3.76;70.21;101395.59;5003837;28;20033;-75
2022/02/25 06:53:09;;;;;;;5.80;1.90;;;;;;;3.76;70.14;101400.06;4997079;28;20361;-75
2022/02/25 06:55:35;;;;;;;6.05;1.98;;;;;;;3.75;70.26;101396.59;5008091;28;20108;-75
2022/02/25 06:58:05;;;;;;;9.32;2.58;;;;;;;3.73;70.10;101400.44;5009975;28;20079;-75
2022/02/25 07:00:36;;;;;;;5.57;1.80;;;;;;;3.72;70.18;101404.13;4999801;28;20022;-76
2022/02/25 07:03:01;;;;;;;7.00;2.00;;;;;;;3.73;70.40;101411.88;5005564;28;20032;-75
2022/02/25 07:05:27;;;;;;;6.43;1.80;;;;;;;3.74;70.42;101410.88;5009913;28;20026;-75
2022/02/25 07:07:54;;;;;;;8.35;2.15;;;;;;;3.77;70.49;101409.66;5008152;28;20104;-75
2022/02/25 07:10:20;;;;;;;5.70;2.10;;;;;;;3.81;70.20;101414.44;4994923;28;20400;-75
2022/02/25 07:12:46;;;;;;;6.18;1.77;;;;;;;3.83;70.22;101414.25;5003558;28;20052;-75
2022/02/25 07:15:12;;;;;;;4.60;1.60;;;;;;;3.83;70.19;101412.41;5014742;28;20632;-75
2022/02/25 07:17:37;;;;;;;8.18;1.77;;;;;;;3.85;70.17;101418.34;5019809;28;20130;-75
2022/02/25 07:20:05;;;;;;;3.15;1.63;;;;;;;3.87;70.13;101421.63;4999815;28;20030;-75
2022/02/25 07:22:31;;;;;;;4.47;1.70;;;;;;;3.87;70.11;101424.28;5010110;28;20048;-75
2022/02/25 07:24:57;;;;;;;7.40;2.00;;;;;;;3.88;70.41;101431.22;5017230;28;20403;-75
2022/02/25 07:27:22;;;;;;;9.57;1.90;;;;;;;3.89;70.38;101432.03;4994482;28;20124;-75
2022/02/25 07:29:48;;;;;;;8.25;1.73;;;;;;;3.92;69.96;101440.44;4996860;28;20035;-75
2022/02/25 07:32:14;;;;;;;7.43;1.95;;;;;;;3.94;70.16;101450.84;5009689;28;20045;-75
2022/02/25 07:34:39;;;;;;;5.05;1.98;;;;;;;3.96;70.15;101456.00;5008082;28;20033;-76
2022/02/25 07:37:05;;;;;;;7.22;1.67;;;;;;;3.99;69.84;101463.56;5007460;28;20106;-75
2022/02/25 07:39:32;;;;;;;3.70;2.08;;;;;;;3.99;69.84;101463.56;5008759;28;20071;-81
2022/02/25 07:41:58;;;;;;;4.88;1.77;;;;;;;4.01;70.10;101470.31;5013768;28;20044;-81
2022/02/25 07:44:23;;;;;;;7.55;1.83;;;;;;;4.02;70.19;101464.00;5017908;28;20037;-82
2022/02/25 07:46:49;;;;;;;7.97;1.75;;;;;;;4.05;69.99;101460.16;5013260;28;20418;-81
2022/02/25 07:49:14;;;;;;;10.48;1.95;;;;;;;4.03;69.87;101465.66;5011450;28;20377;-80
2022/02/25 07:51:40;;;;;;;10.75;2.42;;;;;;;4.04;69.68;101472.59;5007680;28;20046;-81
2022/02/25 07:54:05;;;;;;;7.40;2.03;;;;;;;4.09;69.91;101474.66;5017441;28;20475;-80
2022/02/25 07:56:31;;;;;;;6.53;2.13;;;;;;;4.09;69.72;101472.03;5010507;28;20028;-80
2022/02/25 07:58:57;;;;;;;3.92;1.67;;;;;;;4.10;69.11;101465.72;5013945;28;20192;-80
2022/02/25 08:01:23;;;;;;;3.83;1.80;;;;;;;4.15;69.68;101476.59;5010753;28;20102;-80
2022/02/25 08:03:48;;;;;;;6.40;1.77;;;;;;;4.19;69.74;101477.84;5012842;28;20040;-80
2022/02/25 08:06:14;;;;;;;7.97;1.77;;;;;;;4.24;69.33;101480.75;5017059;28;20029;-80
2022/02/25 08:08:40;;;;;;;7.93;2.63;;;;;;;4.28;69.34;101478.53;5014338;28;20383;-81
2022/02/25 08:11:06;;;;;;;7.20;2.13;;;;;;;4.34;68.99;101483.13;5011896;28;20044;-81
2022/02/25 08:13:32;;;;;;;6.78;1.83;;;;;;;4.38;68.84;101479.06;5018679;28;20506;-80
2022/02/25 08:15:58;;;;;;;4.53;2.05;;;;;;;4.44;69.10;101488.91;5005894;28;20438;-81
2022/02/25 08:18:25;;;;;;;5.50;1.95;;;;;;;4.47;68.81;101489.34;5014105;28;20022;-81
2022/02/25 08:20:51;;;;;;;5.60;1.70;;;;;;;4.51;68.75;101495.94;5005977;28;20026;-81
2022/02/25 08:23:17;;;;;;;8.50;2.00;;;;;;;4.51;68.46;101495.94;5015000;28;20038;-81
2022/02/25 08:26:08;;;;;;;4.55;1.80;;;;;;;4.46;68.38;101495.66;5010412;28;20026;-75
2022/02/25 08:28:40;;;;;;;4.93;1.75;;;;;;;4.55;68.30;101497.19;4988892;28;20076;-76
2022/02/25 08:31:11;;;;;;;5.00;2.03;;;;;;;4.63;68.49;101503.38;5013608;28;20042;-74
2022/02/25 08:33:39;;;;;;;7.75;1.63;;;;;;;4.69;68.31;101507.94;5012991;28;20033;-74
2022/02/25 08:36:06;;;;;;;4.35;1.70;;;;;;;4.71;67.98;101505.91;5027458;22;20852;-84
2022/02/25 08:38:32;;;;;;;3.58;1.55;;;;;;;4.75;68.05;101507.16;5021863;28;20036;-85
2022/02/25 08:40:59;;;;;;;6.07;2.30;;;;;;;4.77;68.04;101515.75;5027951;28;20467;-84
2022/02/25 08:43:26;;;;;;;5.15;1.70;;;;;;;4.81;67.83;101517.00;5007958;28;20114;-85
2022/02/25 08:45:53;;;;;;;10.70;2.03;;;;;;;4.88;67.74;101517.09;5032714;28;20017;-85
2022/02/25 08:48:19;;;;;;;4.47;1.83;;;;;;;4.93;67.75;101527.94;5029193;28;20041;-84
2022/02/25 08:50:44;;;;;;;8.43;1.75;;;;;;;4.98;67.47;101521.03;5012959;28;20035;-85
2022/02/25 08:53:10;;;;;;;5.53;1.75;;;;;;;5.02;67.15;101524.94;5024141;28;20030;-84
2022/02/25 08:55:36;;;;;;;5.60;1.73;;;;;;;5.06;67.07;101520.91;5029301;28;20033;-84
2022/02/25 08:58:02;;;;;;;5.68;2.00;;;;;;;5.10;67.03;101532.78;5031337;28;20049;-86
2022/02/25 09:00:29;;;;;;;7.28;2.10;;;;;;;5.14;66.86;101533.22;5012455;28;20108;-85
2022/02/25 09:02:55;;;;;;;7.03;1.50;;;;;;;5.25;66.88;101535.38;5014003;28;20125;-85
2022/02/25 09:05:22;;;;;;;4.85;1.83;;;;;;;5.35;66.69;101533.16;5029183;28;20091;-85
2022/02/25 09:07:50;;;;;;;6.43;1.48;;;;;;;5.44;66.86;101540.00;5018987;28;20022;-84
2022/02/25 09:10:16;;;;;;;4.97;1.63;;;;;;;5.56;66.10;101539.41;5029635;28;20026;-85
2022/02/25 09:12:42;;;;;;;6.63;1.88;;;;;;;5.66;66.05;101542.56;5031156;28;20053;-85
2022/02/25 09:15:11;;;;;;;5.05;1.67;;;;;;;5.72;65.81;101539.94;5032182;28;20033;-84
2022/02/25 09:17:37;;;;;;;5.38;2.55;;;;;;;5.78;65.53;101545.50;5033738;28;20032;-84
2022/02/25 09:20:04;;;;;;;6.93;1.60;;;;;;;5.81;65.05;101545.09;5025308;28;20018;-85
2022/02/25 09:27:40;;;;;;;6.15;1.75;;;;;;;5.92;64.76;101548.03;5535161;22;20045;-87
2022/02/25 09:30:09;;;;;;;8.65;2.17;;;;;;;6.00;64.53;101547.06;5039455;28;20036;-88
2022/02/25 09:32:35;;;;;;;10.60;1.95;;;;;;;6.04;64.26;101543.78;5051023;28;20021;-89
2022/02/25 09:35:01;;;;;;;6.70;2.00;;;;;;;6.10;63.81;101536.84;5037179;28;20084;-88
2022/02/25 09:37:27;;;;;;;6.25;1.83;;;;;;;6.22;63.99;101542.44;5016639;28;20097;-88
2022/02/25 09:39:53;;;;;;;6.45;1.80;;;;;;;6.34;63.51;101549.66;5053546;28;20537;-88
2022/02/25 09:42:21;;;;;;;11.43;2.88;;;;;;;6.36;63.02;101542.28;5046494;28;20052;-87
2022/02/25 09:44:47;;;;;;;6.95;1.92;;;;;;;6.47;63.15;101550.72;5055036;28;20051;-88
2022/02/25 09:47:15;;;;;;;5.32;1.63;;;;;;;6.53;63.04;101548.06;5038871;28;20026;-88
2022/02/25 09:49:41;;;;;;;7.85;2.83;;;;;;;6.55;62.11;101551.34;5031412;28;20053;-88
2022/02/25 09:52:15;;;;;;;6.22;1.85;;;;;;;6.55;61.99;101553.19;5040636;28;20112;-88
2022/02/25 09:58:13;;;;;;;7.13;1.67;;;;;;;6.59;62.22;101549.91;4967264;28;20044;-90
2022/02/25 10:00:40;;;;;;;7.72;1.63;;;;;;;6.64;61.73;101542.16;5043472;28;20025;-88
2022/02/25 10:03:10;;;;;;;6.75;2.25;;;;;;;6.68;62.01;101547.06;5044005;28;20029;-89
2022/02/25 10:05:39;;;;;;;7.50;1.70;;;;;;;6.71;61.63;101547.47;5041714;28;20025;-90
2022/02/25 10:08:14;;;;;;;4.32;1.73;;;;;;;6.78;60.86;101550.94;5045115;28;20021;-90
2022/02/25 10:10:45;;;;;;;;;;;;;;;6.80;60.75;101562.22;5038659;28;20128;-88
2022/02/25 10:13:13;;;;;;;9.07;2.10;;;;;;;6.98;61.06;101564.28;5036033;28;19913;-88
2022/02/25 10:15:42;;;;;;;7.40;2.08;;;;;;;6.99;60.53;101573.91;5029809;28;20032;-87
2022/02/25 10:25:19;;;;;;;7.13;1.83;;;;;;;7.09;59.12;101578.84;5039589;28;20111;-88
2022/02/25 10:27:56;;;;;;;3.75;1.67;;;;;;;7.21;59.91;101583.38;5038937;28;20029;-87
2022/02/25 21:14:16;;;;;;;65.90;32.17;;;;;;;8.23;71.36;102024.25;1546431;22;21494;-60
2022/02/25 21:19:11;;;;;;;23.77;10.52;;;;;;;8.40;70.93;102034.41;5036633;28;20056;-49
2022/02/25 21:21:39;;;;;;;14.35;6.88;;;;;;;8.70;71.98;102036.72;5043638;28;20033;-52
2022/02/25 21:24:07;;;;;;;7.03;4.13;;;;;;;9.23;71.81;102034.88;5036623;28;20563;-50
2022/02/25 21:26:33;;;;;;;5.47;2.80;;;;;;;9.94;71.76;102040.25;5043099;28;20609;-54
2022/02/25 21:28:59;;;;;;;3.88;1.92;;;;;;;10.89;70.44;102045.69;5045420;28;20033;-51
2022/02/25 21:31:28;;;;;;;47.63;32.05;;;;;;;11.79;69.00;102046.91;5048816;28;20060;-54
2022/02/25 21:33:54;;;;;;;61.03;32.92;;;;;;;12.64;67.25;102048.69;5045349;22;20068;-56
2022/02/25 21:36:21;;;;;;;143.48;76.13;;;;;;;13.42;65.40;102050.31;5016941;28;20478;-55
2022/02/25 21:38:46;;;;;;;40.72;20.10;;;;;;;13.96;64.07;102057.13;5020653;28;20782;-50
2022/02/25 21:41:12;;;;;;;19.02;8.95;;;;;;;14.23;62.42;102056.56;5019528;28;20041;-53
2022/02/25 21:43:38;;;;;;;6.95;4.45;;;;;;;14.51;61.95;102053.88;5007829;28;20037;-56
2022/02/25 21:46:05;;;;;;;21.52;13.52;;;;;;;14.78;60.48;102057.63;4992012;28;20030;-54
2022/02/25 21:48:34;;;;;;;36.28;18.73;;;;;;;14.98;60.67;102067.94;5000753;28;20033;-54
2022/02/25 21:51:00;;;;;;;75.47;43.78;;;;;;;15.41;59.76;102066.41;5003589;28;20034;-52
2022/02/25 21:53:25;;;;;;;65.65;32.80;;;;;;;15.75;58.15;102075.28;5004235;28;20096;-55
2022/02/25 21:55:51;;;;;;;54.30;29.10;;;;;;;15.95;57.29;102083.66;5003039;28;20053;-54
2022/02/25 21:58:16;;;;;;;50.78;31.42;;;;;;;16.23;56.53;102081.84;5004450;28;20030;-50
2022/02/25 22:00:42;;;;;;;116.18;59.55;;;;;;;16.35;55.98;102093.34;5000739;28;20391;-51
2022/02/25 22:03:08;;;;;;;117.82;64.70;;;;;;;16.61;54.91;102100.63;5003257;28;20491;-52
2022/02/25 22:05:33;;;;;;;92.00;55.42;;;;;;;17.05;54.12;102094.28;5000626;28;20030;-51
2022/02/25 22:08:01;;;;;;;106.55;63.65;;;;;;;17.30;53.16;102105.31;4999460;28;20037;-55
2022/02/25 22:10:27;;;;;;;30.98;20.38;;;;;;;17.18;52.71;102110.09;5004689;28;20025;-53
2022/02/25 22:12:52;;;;;;;13.80;8.30;;;;;;;17.32;52.58;102099.66;5006950;28;20510;-54
2022/02/25 22:15:18;;;;;;;6.32;3.55;;;;;;;17.21;51.97;102104.97;5006457;28;20047;-54
2022/02/25 22:17:44;;;;;;;4.85;2.40;;;;;;;17.17;52.12;102103.88;5002350;28;20067;-51
2022/02/25 22:20:11;;;;;;;2.95;1.70;;;;;;;17.37;51.97;102111.31;5004955;28;20034;-51
2022/02/25 22:22:37;;;;;;;3.25;1.25;;;;;;;17.64;50.53;102115.84;5004163;28;20616;-52
2022/02/25 22:25:04;;;;;;;1.77;0.80;;;;;;;17.84;50.24;102115.16;5004796;28;20186;-50
2022/02/25 22:27:32;;;;;;;2.35;1.38;;;;;;;17.95;49.09;102114.94;5005182;28;20072;-52
2022/02/25 22:29:57;;;;;;;2.47;1.25;;;;;;;17.83;49.79;102129.81;5003102;28;20128;-49
2022/02/25 22:32:23;;;;;;;3.08;1.05;;;;;;;18.10;49.32;102125.03;5002826;28;20116;-52
2022/02/25 22:34:49;;;;;;;2.58;1.30;;;;;;;18.09;48.28;102126.13;5001479;28;20036;-52
2022/02/25 22:37:15;;;;;;;2.67;1.10;;;;;;;17.83;49.24;102143.38;5000316;28;20037;-53